Terminal Aerodrome Forecast
Issued by NWS Bismarck, ND

Home | Current Version | Previous Version | Text Only | Print | Product List | Glossary On
Versions: 1 2 3 4 5 6 7 8 9 10 11 12 13 14 15 16 17 18 19
000
FTUS43 KBIS 170532
TAFISN
TAF
KISN 170532Z 1706/1806 22005KT P6SM FEW250
     FM171800 21012G22KT P6SM FEW250
     FM172200 22010KT P6SM SCT250
     FM180100 23008KT P6SM BKN200=

USA.gov is the U.S. government's official web portal to all federal, state and local government web resources and services.